Time;durP1;ratioP1;P1;durP2;ratioP2;P2;SDS_P1;SDS_P2;PMS_P1;PMS_P2;Temp;Humidity;BMP_temperature;BMP_pressure;BME280_temperature;BME280_humidity;BME280_pressure;Samples;Min_cycle;Max_cycle;Signal;HPM_P1;HPM_P2
2024/01/19 00:01:52;;;;;;;34.10;23.60;;;;;;;8.85;100.00;97634.38;104934;1257;60225;-71
2024/01/19 00:05:04;;;;;;;34.30;23.80;;;;;;;8.80;100.00;97635.25;104635;1254;72943;-71
2024/01/19 00:08:16;;;;;;;32.10;23.40;;;;;;;8.85;100.00;97640.80;104759;1258;70251;-71
2024/01/19 00:11:28;;;;;;;35.40;24.40;;;;;;;8.91;100.00;97644.91;104873;1257;72339;-70
2024/01/19 00:14:40;;;;;;;36.60;24.70;;;;;;;9.02;100.00;97651.56;104637;1257;61689;-69
2024/01/19 00:17:52;;;;;;;34.30;23.80;;;;;;;8.74;100.00;97655.85;104409;1257;60773;-69
2024/01/19 00:21:04;;;;;;;38.00;24.90;;;;;;;8.75;100.00;97655.60;104799;1261;73671;-69
2024/01/19 00:24:17;;;;;;;32.10;23.90;;;;;;;8.72;100.00;97654.92;104913;1254;69153;-69
2024/01/19 00:27:29;;;;;;;35.50;24.30;;;;;;;8.71;100.00;97656.06;104625;1254;73093;-69
2024/01/19 00:30:41;;;;;;;37.90;22.90;;;;;;;8.65;100.00;97654.90;104824;1259;60993;-70
2024/01/19 00:33:53;;;;;;;34.60;23.30;;;;;;;8.67;100.00;97658.44;104788;1253;59695;-71
2024/01/19 00:37:04;;;;;;;34.60;24.60;;;;;;;8.86;100.00;97654.40;104580;1258;71829;-70
2024/01/19 00:40:16;;;;;;;42.40;25.70;;;;;;;8.76;100.00;97654.55;105846;1254;69398;-71
2024/01/19 00:43:28;;;;;;;41.70;26.00;;;;;;;8.73;100.00;97647.73;104620;1259;72591;-69
2024/01/19 00:45:55;;;;;;;36.40;24.50;;;;;;;8.74;100.00;97647.83;104460;1257;62121;-71
2024/01/19 00:49:07;;;;;;;40.60;26.10;;;;;;;8.82;100.00;97641.56;104426;1257;59754;-70
2024/01/19 00:52:19;;;;;;;37.60;24.30;;;;;;;8.82;100.00;97646.92;104436;1255;72808;-70
2024/01/19 00:55:34;;;;;;;39.60;25.00;;;;;;;8.90;100.00;97658.95;104967;1267;68582;-70
2024/01/19 00:58:46;;;;;;;45.70;26.90;;;;;;;8.95;100.00;97653.27;104835;1259;73348;-71
2024/01/19 01:06:20;;;;;;;49.90;26.30;;;;;;;8.96;100.00;97652.45;104675;1253;60615;-69
2024/01/19 01:09:32;;;;;;;45.70;27.30;;;;;;;8.99;100.00;97651.77;104755;1255;71940;-71
2024/01/19 01:12:44;;;;;;;44.90;26.60;;;;;;;9.01;100.00;97654.61;104612;1275;69201;-71
2024/01/19 01:15:30;;;;;;;44.70;25.40;;;;;;;9.01;100.00;97657.19;104362;1270;72353;-69
2024/01/19 01:18:34;;;;;;;39.50;25.90;;;;;;;9.09;100.00;97658.72;105053;1257;60664;-70
2024/01/19 01:21:34;;;;;;;41.40;25.60;;;;;;;9.09;100.00;97667.36;104343;1254;59896;-69
2024/01/19 01:24:46;;;;;;;39.30;26.40;;;;;;;9.15;100.00;97672.10;104610;1253;72916;-70
2024/01/19 01:27:17;;;;;;;46.10;27.50;;;;;;;9.11;100.00;97676.64;104457;1258;69053;-69
2024/01/19 01:30:29;;;;;;;39.30;26.10;;;;;;;9.07;100.00;97674.80;104656;1255;72456;-71
2024/01/19 01:33:41;;;;;;;42.20;25.90;;;;;;;9.12;100.00;97677.80;104640;1257;60639;-70
2024/01/19 01:36:53;;;;;;;45.40;26.50;;;;;;;9.13;100.00;97685.39;105166;1256;59703;-70
2024/01/19 01:40:05;;;;;;;50.70;28.30;;;;;;;9.17;100.00;97691.21;104643;1256;72868;-72
2024/01/19 01:43:25;;;;;;;50.20;29.00;;;;;;;9.38;100.00;97692.80;104550;1267;70054;-70
2024/01/19 01:50:57;;;;;;;53.30;29.40;;;;;;;9.20;100.00;97702.09;104351;1258;63858;-69
2024/01/19 01:54:09;;;;;;;49.00;29.60;;;;;;;9.11;100.00;97707.19;104691;1258;60095;-71
2024/01/19 01:57:21;;;;;;;48.10;27.10;;;;;;;9.12;100.00;97709.06;104617;1257;72927;-71
2024/01/19 02:00:12;;;;;;;45.40;28.80;;;;;;;9.22;100.00;97707.20;105000;1257;69345;-70
2024/01/19 02:03:24;;;;;;;48.20;28.70;;;;;;;9.10;100.00;97707.26;104510;1257;72364;-70
2024/01/19 02:06:39;;;;;;;42.70;26.70;;;;;;;9.12;100.00;97709.96;104505;1257;60979;-68
2024/01/19 02:09:57;;;;;;;43.40;26.40;;;;;;;9.15;100.00;97711.46;104555;1261;59778;-67
2024/01/19 02:13:13;;;;;;;40.20;25.60;;;;;;;9.20;100.00;97715.02;105012;1253;72807;-69
2024/01/19 02:16:24;;;;;;;41.40;25.90;;;;;;;9.25;100.00;97715.48;104921;1259;68088;-68
2024/01/19 02:23:56;;;;;;;40.90;25.40;;;;;;;9.29;100.00;97721.22;104618;1257;62777;-68
2024/01/19 02:27:08;;;;;;;35.70;24.30;;;;;;;9.28;100.00;97724.07;104876;1253;59660;-68
2024/01/19 02:30:12;;;;;;;37.60;24.80;;;;;;;9.21;100.00;97729.42;105467;1254;73539;-69
2024/01/19 02:33:24;;;;;;;38.40;24.60;;;;;;;9.27;100.00;97729.88;104799;1254;69626;-69
2024/01/19 02:36:36;;;;;;;34.90;24.40;;;;;;;9.41;100.00;97736.11;104835;1259;74043;-68
2024/01/19 02:39:54;;;;;;;36.30;24.70;;;;;;;9.74;100.00;97737.33;105656;1254;60836;-70
2024/01/19 02:43:09;;;;;;;31.90;23.40;;;;;;;9.81;100.00;97740.04;104904;1254;62248;-70
2024/01/19 02:46:21;;;;;;;34.30;23.80;;;;;;;9.54;100.00;97742.75;105493;1253;73947;-71
2024/01/19 02:49:33;;;;;;;32.30;23.00;;;;;;;9.51;100.00;97744.54;105271;1253;71479;-69
2024/01/19 02:52:07;;;;;;;33.10;23.70;;;;;;;9.46;100.00;97746.95;104835;1254;72334;-70
2024/01/19 02:55:13;;;;;;;31.90;22.80;;;;;;;9.46;100.00;97752.42;105203;1257;60719;-70
2024/01/19 02:58:25;;;;;;;31.90;22.10;;;;;;;9.43;100.00;97756.95;104584;1261;59864;-69
2024/01/19 03:04:59;;;;;;;29.70;20.30;;;;;;;9.47;100.00;97760.90;104626;1266;69256;-69
2024/01/19 03:08:03;;;;;;;26.30;19.60;;;;;;;9.39;100.00;97766.84;104871;1257;71921;-69
2024/01/19 03:11:15;;;;;;;26.30;17.90;;;;;;;9.43;100.00;97767.46;104823;1254;60601;-71
2024/01/19 03:22:17;;;;;;;21.60;16.10;;;;;;;9.46;100.00;97785.60;104976;1254;70703;-71
2024/01/19 03:24:46;;;;;;;21.30;16.40;;;;;;;9.56;100.00;97796.67;104670;1270;73185;-71
2024/01/19 03:27:58;;;;;;;24.20;17.70;;;;;;;9.46;100.00;97801.37;104599;1254;60876;-71
2024/01/19 03:31:13;;;;;;;23.10;18.40;;;;;;;9.37;100.00;97810.00;104546;1254;60550;-70
2024/01/19 03:34:27;;;;;;;24.20;17.70;;;;;;;9.32;100.00;97808.77;104529;1253;74546;-70
2024/01/19 03:37:39;;;;;;;23.10;17.30;;;;;;;9.37;100.00;97812.27;104699;1257;70483;-70
2024/01/19 03:40:51;;;;;;;24.20;17.80;;;;;;;9.40;100.00;97813.82;105178;1257;72775;-70
2024/01/19 03:44:03;;;;;;;23.50;17.40;;;;;;;9.36;100.00;97817.93;104559;1258;61614;-70
2024/01/19 03:47:19;;;;;;;23.80;18.00;;;;;;;9.41;100.00;97829.14;104526;1257;60440;-69
2024/01/19 03:50:32;;;;;;;22.30;17.60;;;;;;;9.36;100.00;97830.19;104967;1254;73881;-71
2024/01/19 03:53:43;;;;;;;23.10;17.10;;;;;;;9.32;100.00;97837.05;104683;1254;70405;-71
2024/01/19 03:56:56;;;;;;;23.00;17.90;;;;;;;9.36;100.00;97837.70;104828;1256;71840;-70
2024/01/19 04:00:09;;;;;;;20.20;16.20;;;;;;;9.39;100.00;97846.64;104740;1260;60675;-71
2024/01/19 04:07:44;;;;;;;25.10;17.60;;;;;;;9.38;100.00;97862.57;105035;1267;75535;-68
2024/01/19 04:10:47;;;;;;;26.40;18.90;;;;;;;9.37;100.00;97875.96;104608;1273;69942;-68
2024/01/19 04:17:36;;;;;;;24.70;20.10;;;;;;;9.38;100.00;97886.38;104553;1258;61561;-70
2024/01/19 04:20:13;;;;;;;23.70;19.20;;;;;;;9.34;100.00;97892.90;105067;1263;61004;-69
2024/01/19 04:23:26;;;;;;;26.90;20.60;;;;;;;9.34;100.00;97902.84;104593;1270;73597;-69
2024/01/19 04:26:38;;;;;;;29.10;20.70;;;;;;;9.29;100.00;97914.58;104762;1254;69090;-69
2024/01/19 04:29:49;;;;;;;24.10;18.60;;;;;;;9.17;100.00;97911.67;104849;1254;74921;-69
2024/01/19 04:33:01;;;;;;;24.90;19.70;;;;;;;9.20;100.00;97929.13;104907;1257;61055;-69
2024/01/19 04:36:14;;;;;;;26.30;19.70;;;;;;;9.21;100.00;97929.76;104753;1254;60551;-68
2024/01/19 04:39:07;;;;;;;24.30;18.90;;;;;;;9.25;100.00;97940.38;104529;1255;72600;-68
2024/01/19 04:42:20;;;;;;;23.80;17.50;;;;;;;9.26;100.00;97945.36;104562;1259;69501;-69
2024/01/19 04:45:31;;;;;;;24.20;18.40;;;;;;;9.26;100.00;97958.83;104787;1255;73494;-69
2024/01/19 04:48:45;;;;;;;23.00;17.40;;;;;;;9.21;100.00;97963.69;105044;1255;60612;-69
2024/01/19 04:51:57;;;;;;;20.00;16.60;;;;;;;9.21;100.00;97970.48;105065;1256;60767;-69
2024/01/19 04:55:09;;;;;;;21.50;16.70;;;;;;;9.30;100.00;97980.23;104896;1257;74075;-70
2024/01/19 04:58:08;;;;;;;17.90;14.60;;;;;;;9.40;100.00;97988.88;104932;1255;69569;-70
2024/01/19 05:00:54;;;;;;;17.70;13.80;;;;;;;9.31;100.00;97990.29;104665;1253;71892;-71
2024/01/19 05:07:55;;;;;;;13.60;11.40;;;;;;;9.40;100.00;98003.23;105073;1254;60468;-70
2024/01/19 05:22:47;;;;;;;7.40;6.50;;;;;;;8.91;100.00;98035.11;104543;1257;60705;-62
2024/01/19 05:30:07;;;;;;;6.20;5.60;;;;;;;8.72;100.00;98060.36;104725;1254;73740;-68
2024/01/19 05:37:08;;;;;;;6.40;5.80;;;;;;;8.46;100.00;98087.45;104616;1255;73811;-69
2024/01/19 05:44:09;;;;;;;7.10;6.40;;;;;;;8.51;100.00;98105.27;104776;1255;60649;-68
2024/01/19 05:47:08;;;;;;;8.20;6.20;;;;;;;8.50;100.00;98112.68;104586;1258;74846;-70
2024/01/19 05:50:13;;;;;;;6.40;5.80;;;;;;;8.45;100.00;98123.64;104834;1257;68222;-70
2024/01/19 05:53:28;;;;;;;5.50;5.00;;;;;;;8.44;100.00;98125.63;104554;1256;72648;-69
2024/01/19 06:00:13;;;;;;;6.10;5.60;;;;;;;8.45;100.00;98148.11;105718;1254;60874;-70
2024/01/19 06:02:50;;;;;;;6.70;6.10;;;;;;;8.34;100.00;98158.81;104980;1254;73655;-68
2024/01/19 06:06:03;;;;;;;6.60;6.00;;;;;;;8.39;100.00;98167.59;105303;1258;68630;-61
2024/01/19 06:09:16;;;;;;;6.60;5.80;;;;;;;8.31;100.00;98174.16;104430;1256;72649;-63
2024/01/19 06:12:28;;;;;;;5.30;4.80;;;;;;;8.32;100.00;98184.73;104725;1253;61468;-61
2024/01/19 06:15:40;;;;;;;5.50;5.00;;;;;;;8.43;100.00;98190.44;104738;1254;60599;-60
2024/01/19 06:18:26;;;;;;;5.30;4.40;;;;;;;8.42;100.00;98199.02;104330;1256;74811;-60
2024/01/19 06:25:58;;;;;;;4.80;4.40;;;;;;;8.40;100.00;98205.80;104632;1254;74108;-63
2024/01/19 06:29:11;;;;;;;5.30;4.80;;;;;;;8.37;100.00;98211.92;104841;1258;60586;-60
2024/01/19 06:32:23;;;;;;;5.60;5.10;;;;;;;8.54;100.00;98218.64;104585;1254;60758;-60
2024/01/19 06:35:35;;;;;;;5.80;5.30;;;;;;;8.62;100.00;98213.83;104954;1258;74500;-60
2024/01/19 06:38:48;;;;;;;5.40;5.10;;;;;;;8.53;100.00;98226.21;104570;1255;69786;-62
2024/01/19 06:42:00;;;;;;;6.20;5.60;;;;;;;8.53;100.00;98227.96;105032;1256;71556;-62
2024/01/19 06:45:12;;;;;;;6.10;5.50;;;;;;;8.60;100.00;98230.86;104612;1254;61254;-61
2024/01/19 06:48:24;;;;;;;6.10;5.50;;;;;;;8.65;100.00;98234.80;105169;1255;60916;-60
2024/01/19 06:51:36;;;;;;;6.40;5.70;;;;;;;8.74;100.00;98239.85;104572;1259;72808;-64
2024/01/19 06:54:50;;;;;;;6.70;6.10;;;;;;;8.72;100.00;98257.81;104761;1256;70108;-61
2024/01/19 06:58:02;;;;;;;6.90;6.10;;;;;;;8.62;100.00;98261.36;104336;1264;73420;-61
2024/01/19 07:01:18;;;;;;;6.70;6.00;;;;;;;8.47;100.00;98269.15;104583;1255;60153;-63
2024/01/19 07:04:31;;;;;;;7.50;6.80;;;;;;;8.48;100.00;98268.92;104652;1270;60480;-62
2024/01/19 07:07:43;;;;;;;7.90;7.10;;;;;;;8.50;100.00;98273.70;105236;1256;74018;-63
2024/01/19 07:11:01;;;;;;;7.10;6.40;;;;;;;8.54;100.00;98282.91;104317;1254;68745;-63
2024/01/19 07:21:28;;;;;;;7.60;6.90;;;;;;;7.54;100.00;98304.65;104869;1254;60607;-65
2024/01/19 07:24:43;;;;;;;9.90;8.10;;;;;;;7.12;100.00;98315.86;105005;1253;73506;-64
2024/01/19 07:27:59;;;;;;;9.40;7.80;;;;;;;8.12;100.00;98310.34;105327;1256;68574;-66
2024/01/19 07:30:58;;;;;;;8.70;7.80;;;;;;;8.33;100.00;98316.20;104843;1258;72559;-62
2024/01/19 07:33:30;;;;;;;9.10;7.90;;;;;;;8.34;100.00;98315.58;104946;1258;60557;-63
2024/01/19 07:36:44;;;;;;;8.80;7.70;;;;;;;8.25;100.00;98318.35;104305;1260;60462;-63
2024/01/19 07:39:57;;;;;;;8.70;7.80;;;;;;;8.16;100.00;98329.12;104290;1255;72795;-62
2024/01/19 07:43:09;;;;;;;9.80;8.80;;;;;;;8.10;100.00;98338.72;104834;1257;69457;-61
2024/01/19 07:45:37;;;;;;;11.20;9.10;;;;;;;8.04;100.00;98350.23;104614;1255;72546;-61
2024/01/19 07:48:49;;;;;;;10.50;8.70;;;;;;;7.98;100.00;98357.83;104526;1257;61093;-61
2024/01/19 07:52:02;;;;;;;11.80;9.50;;;;;;;8.08;100.00;98362.57;104741;1254;60480;-62
2024/01/19 07:55:14;;;;;;;12.00;9.10;;;;;;;8.08;100.00;98367.10;104795;1265;73739;-61
2024/01/19 07:58:28;;;;;;;11.90;9.70;;;;;;;7.99;100.00;98366.50;105107;1254;69950;-60
2024/01/19 08:01:40;;;;;;;11.60;10.10;;;;;;;7.89;100.00;98367.72;104427;1271;73360;-61
2024/01/19 08:04:52;;;;;;;16.20;10.30;;;;;;;7.90;100.00;98373.44;105118;1253;60895;-60
2024/01/19 08:08:04;;;;;;;13.10;9.70;;;;;;;7.89;100.00;98375.78;105340;1256;60367;-59
2024/01/19 08:11:20;;;;;;;13.30;10.00;;;;;;;7.87;100.00;98380.07;105462;1254;74386;-61
2024/01/19 08:14:32;;;;;;;11.40;9.90;;;;;;;7.76;100.00;98388.09;104803;1257;69705;-60
2024/01/19 08:17:44;;;;;;;14.00;10.50;;;;;;;7.66;100.00;98396.66;104714;1256;72666;-60
2024/01/19 08:20:56;;;;;;;12.40;10.40;;;;;;;7.57;100.00;98405.63;104853;1258;60912;-60
2024/01/19 08:24:06;;;;;;;12.20;10.00;;;;;;;7.68;100.00;98411.89;105509;1254;60530;-61
2024/01/19 08:27:19;;;;;;;11.60;9.40;;;;;;;7.73;100.00;98413.38;104292;1258;74261;-60
2024/01/19 08:30:19;;;;;;;15.40;10.80;;;;;;;7.83;100.00;98413.94;104369;1261;70357;-60
2024/01/19 08:41:28;;;;;;;12.20;10.50;;;;;;;6.80;100.00;98439.31;104865;1255;60375;-60
2024/01/19 08:44:40;;;;;;;12.60;10.60;;;;;;;6.80;100.00;98448.71;104580;1253;73890;-60
2024/01/19 08:47:52;;;;;;;13.10;10.60;;;;;;;6.73;100.00;98452.02;104048;1261;69733;-60
2024/01/19 08:54:52;;;;;;;13.00;11.10;;;;;;;7.92;100.00;98452.55;104842;1255;60698;-60
2024/01/19 09:01:56;;;;;;;12.90;9.80;;;;;;;7.74;100.00;98462.86;104812;1254;74177;-60
2024/01/19 09:05:08;;;;;;;14.10;11.10;;;;;;;7.74;100.00;98471.95;105079;1256;69061;-60
2024/01/19 09:08:21;;;;;;;14.20;10.80;;;;;;;7.71;100.00;98483.96;104789;1255;71662;-61
2024/01/19 09:11:34;;;;;;;11.90;10.60;;;;;;;7.85;100.00;98501.42;104735;1256;60891;-59
2024/01/19 09:14:46;;;;;;;14.20;10.40;;;;;;;8.01;100.00;98513.03;104527;1256;60518;-60
2024/01/19 09:17:58;;;;;;;14.40;10.00;;;;;;;8.01;100.00;98515.41;104495;1258;73724;-61
2024/01/19 09:21:11;;;;;;;12.60;10.20;;;;;;;7.99;100.00;98521.14;104297;1272;70607;-60
2024/01/19 09:24:27;;;;;;;13.40;10.50;;;;;;;7.98;100.00;98525.02;104074;1258;74101;-59
2024/01/19 09:27:41;;;;;;;15.50;10.20;;;;;;;8.04;100.00;98531.88;104843;1256;60185;-60
2024/01/19 09:30:53;;;;;;;14.70;11.30;;;;;;;8.06;100.00;98537.38;104304;1258;60489;-60
2024/01/19 09:34:06;;;;;;;15.70;11.60;;;;;;;8.12;100.00;98538.77;104729;1256;72819;-59
2024/01/19 09:37:18;;;;;;;12.80;10.20;;;;;;;8.13;100.00;98530.88;104326;1256;69025;-58
2024/01/19 09:40:29;;;;;;;17.00;11.40;;;;;;;8.06;100.00;98538.39;104558;1255;73341;-62
2024/01/19 09:43:42;;;;;;;14.30;10.60;;;;;;;8.09;100.00;98539.30;105003;1255;60700;-59
2024/01/19 09:46:54;;;;;;;13.50;10.80;;;;;;;8.16;100.00;98537.75;104757;1260;60465;-59
2024/01/19 09:49:50;;;;;;;11.10;9.80;;;;;;;8.24;100.00;98545.52;104690;1256;74680;-60
2024/01/19 09:56:36;;;;;;;16.10;12.50;;;;;;;8.13;100.00;98551.85;104567;1255;73603;-60
2024/01/19 10:07:42;;;;;;;16.40;12.40;;;;;;;8.34;100.00;98559.17;103458;1271;63266;-61
2024/01/19 10:10:55;;;;;;;12.80;10.80;;;;;;;8.23;100.00;98560.95;103608;1271;60143;-62
2024/01/19 10:14:06;;;;;;;14.00;11.70;;;;;;;8.17;100.00;98556.52;103344;1275;72100;-62
2024/01/19 10:17:18;;;;;;;14.20;11.60;;;;;;;8.13;100.00;98557.76;99570;1274;5531969;-60
2024/01/19 10:20:30;;;;;;;16.70;12.40;;;;;;;8.22;100.00;98562.06;103677;1265;62410;-62
2024/01/19 10:23:43;;;;;;;14.40;10.90;;;;;;;8.28;100.00;98572.05;104063;1268;60135;-62
2024/01/19 10:26:59;;;;;;;12.10;10.50;;;;;;;8.31;100.00;98579.59;103783;1270;71283;-60
2024/01/19 10:30:14;;;;;;;12.40;10.70;;;;;;;8.29;100.00;98586.84;103827;1266;70111;-61
2024/01/19 10:33:27;;;;;;;12.00;9.90;;;;;;;8.23;100.00;98589.76;103660;1265;71709;-60
2024/01/19 10:40:22;;;;;;;13.20;10.30;;;;;;;8.19;99.73;98588.76;103952;1271;60083;-62
2024/01/19 10:42:59;;;;;;;13.40;9.60;;;;;;;8.32;99.78;98602.40;103682;1268;73515;-62
2024/01/19 10:46:10;;;;;;;11.90;9.50;;;;;;;8.35;97.85;98597.89;103905;1276;69110;-62
2024/01/19 10:49:23;;;;;;;13.20;10.20;;;;;;;8.46;98.08;98600.52;103860;1267;72509;-63
2024/01/19 10:52:35;;;;;;;11.00;9.20;;;;;;;8.55;96.70;98613.66;103605;1275;60909;-60
2024/01/19 10:55:22;;;;;;;10.80;8.50;;;;;;;8.59;96.48;98625.36;103670;1281;60508;-61
2024/01/19 10:58:35;;;;;;;10.80;8.70;;;;;;;8.64;93.41;98623.69;103992;1267;73362;-61
2024/01/19 11:06:07;;;;;;;10.70;7.90;;;;;;;8.51;88.65;98625.77;103842;1267;73427;-62
2024/01/19 11:08:40;;;;;;;8.60;7.60;;;;;;;8.57;86.39;98631.73;103933;1267;61323;-61
2024/01/19 11:11:57;;;;;;;11.40;7.90;;;;;;;8.56;86.29;98633.72;103560;1281;59770;-60
2024/01/19 11:23:05;;;;;;;11.10;8.10;;;;;;;8.15;77.77;98661.20;104214;1270;72567;-62
2024/01/19 11:25:42;;;;;;;9.40;7.30;;;;;;;8.05;76.27;98665.88;103555;1281;60887;-61
2024/01/19 11:28:54;;;;;;;8.60;7.30;;;;;;;8.03;74.80;98673.10;103703;1266;60813;-61
2024/01/19 11:32:09;;;;;;;8.70;7.10;;;;;;;8.17;76.99;98679.95;103629;1266;73954;-62
2024/01/19 11:35:22;;;;;;;8.30;6.10;;;;;;;8.26;74.57;98674.64;104016;1267;68561;-62
2024/01/19 11:38:34;;;;;;;8.60;7.00;;;;;;;8.26;75.55;98667.98;104118;1266;73061;-62
2024/01/19 11:41:48;;;;;;;10.00;7.40;;;;;;;8.16;74.66;98666.02;103973;1272;61233;-61
2024/01/19 11:45:00;;;;;;;11.20;7.50;;;;;;;8.05;73.06;98679.81;104083;1268;59384;-61
2024/01/19 11:48:13;;;;;;;10.60;7.50;;;;;;;8.01;74.12;98686.80;103917;1265;73141;-62
2024/01/19 11:51:29;;;;;;;11.00;7.80;;;;;;;7.99;74.55;98685.48;103594;1277;68591;-63
2024/01/19 11:54:42;;;;;;;10.30;7.80;;;;;;;7.95;71.60;98685.02;103901;1268;72649;-61
2024/01/19 11:57:55;;;;;;;8.80;6.80;;;;;;;7.98;72.25;98695.86;103676;1266;60831;-62
2024/01/19 12:01:09;;;;;;;9.80;7.30;;;;;;;8.04;72.57;98710.44;103615;1267;61260;-62
2024/01/19 12:04:21;;;;;;;11.90;7.80;;;;;;;8.11;72.48;98710.80;103848;1270;73395;-62
2024/01/19 12:07:33;;;;;;;7.50;6.30;;;;;;;8.15;71.52;98712.52;103696;1265;70624;-62
2024/01/19 12:10:20;;;;;;;10.10;6.60;;;;;;;8.20;70.32;98710.50;103591;1266;71836;-62
2024/01/19 12:13:34;;;;;;;8.80;6.70;;;;;;;8.14;68.62;98711.00;103805;1268;59978;-60
2024/01/19 12:16:46;;;;;;;9.80;6.10;;;;;;;8.12;68.22;98722.92;103674;1266;59937;-62
2024/01/19 12:19:14;;;;;;;7.80;6.20;;;;;;;8.19;67.44;98734.16;103581;1281;73181;-61
2024/01/19 12:22:30;;;;;;;7.50;5.80;;;;;;;8.19;69.02;98738.83;103652;1266;69589;-60
2024/01/19 12:30:02;;;;;;;8.90;5.40;;;;;;;8.05;65.51;98761.14;103708;1267;63926;-61
2024/01/19 12:33:14;;;;;;;6.50;4.60;;;;;;;8.03;64.84;98769.10;103590;1281;59900;-60
2024/01/19 12:36:30;;;;;;;7.30;5.40;;;;;;;8.05;63.86;98772.48;103621;1283;73223;-62
2024/01/19 12:44:02;;;;;;;7.70;4.00;;;;;;;7.91;61.27;98763.87;103723;1266;72640;-60
2024/01/19 12:47:14;;;;;;;8.00;4.90;;;;;;;7.80;60.89;98768.58;103610;1285;60839;-61
2024/01/19 12:50:26;;;;;;;5.80;3.90;;;;;;;7.71;59.45;98776.28;103926;1281;60364;-62
2024/01/19 12:53:39;;;;;;;4.50;3.50;;;;;;;7.55;58.70;98783.63;103730;1270;73724;-61
2024/01/19 12:56:57;;;;;;;5.20;3.60;;;;;;;7.52;58.19;98782.90;103736;1268;69462;-62
2024/01/19 13:03:32;;;;;;;5.30;4.00;;;;;;;7.57;56.79;98771.67;103742;1268;60812;-59
2024/01/19 13:06:49;;;;;;;4.80;3.70;;;;;;;7.57;57.09;98773.42;103756;1265;59873;-60
2024/01/19 13:14:21;;;;;;;8.20;4.40;;;;;;;7.56;58.16;98795.64;103985;1266;71287;-61
2024/01/19 13:17:34;;;;;;;4.80;3.50;;;;;;;7.55;58.91;98798.11;103755;1266;72243;-61
2024/01/19 13:20:24;;;;;;;5.50;3.80;;;;;;;7.55;59.33;98806.67;103881;1264;61347;-67
2024/01/19 13:23:36;;;;;;;10.20;5.00;;;;;;;7.55;59.81;98809.45;103701;1266;62698;-67
2024/01/19 13:26:49;;;;;;;7.40;4.20;;;;;;;7.43;58.58;98812.05;103893;1265;71883;-68
2024/01/19 13:30:01;;;;;;;6.70;4.10;;;;;;;7.45;59.15;98825.58;104136;1266;68975;-63
2024/01/19 13:32:47;;;;;;;4.60;4.00;;;;;;;7.44;59.85;98834.34;103761;1271;72511;-62
2024/01/19 13:35:59;;;;;;;6.90;4.40;;;;;;;7.49;60.40;98839.91;103605;1271;59825;-62
2024/01/19 13:43:34;;;;;;;6.00;3.80;;;;;;;7.45;59.84;98838.49;104077;1268;76561;-64
2024/01/19 13:51:00;;;;;;;4.80;3.50;;;;;;;7.50;60.17;98840.70;103999;1265;72519;-63
2024/01/19 13:54:13;;;;;;;4.60;3.70;;;;;;;7.47;60.53;98845.73;103653;1281;60543;-62
2024/01/19 13:57:25;;;;;;;5.40;4.00;;;;;;;7.44;60.69;98853.17;104098;1265;59900;-62
2024/01/19 14:00:37;;;;;;;6.00;4.00;;;;;;;7.37;60.46;98860.98;103885;1265;73998;-64
2024/01/19 14:03:49;;;;;;;5.70;3.70;;;;;;;7.41;61.20;98866.19;103780;1269;72307;-63
2024/01/19 14:07:01;;;;;;;4.40;3.80;;;;;;;7.39;60.65;98859.82;103681;1270;73365;-64
2024/01/19 14:10:13;;;;;;;6.80;4.10;;;;;;;7.41;61.02;98853.98;104003;1259;60868;-61
2024/01/19 14:12:50;;;;;;;4.50;3.60;;;;;;;7.41;60.52;98867.09;104436;1262;59986;-62
2024/01/19 14:16:05;;;;;;;7.80;3.60;;;;;;;7.42;60.54;98877.14;104155;1262;71686;-65
2024/01/19 14:19:24;;;;;;;3.80;3.20;;;;;;;7.43;60.51;98887.55;104248;1264;68535;-63
2024/01/19 14:22:08;;;;;;;7.40;4.10;;;;;;;7.39;60.76;98891.21;104080;1274;72595;-63
2024/01/19 14:25:01;;;;;;;5.90;4.00;;;;;;;7.39;60.50;98893.48;104245;1264;60864;-63
2024/01/19 14:32:37;;;;;;;11.70;4.50;;;;;;;7.33;61.06;98899.31;104278;1260;74339;-60
2024/01/19 14:35:14;;;;;;;6.20;3.90;;;;;;;7.46;60.86;98899.65;104511;1259;69547;-63
2024/01/19 14:38:17;;;;;;;8.40;4.30;;;;;;;7.45;60.72;98901.80;104326;1262;71830;-61
2024/01/19 14:41:30;;;;;;;5.60;4.10;;;;;;;7.45;61.07;98912.09;104235;1273;60800;-62
2024/01/19 14:44:32;;;;;;;6.60;4.80;;;;;;;7.39;60.92;98912.33;104064;1265;60208;-62
2024/01/19 14:47:44;;;;;;;4.20;3.40;;;;;;;7.37;61.63;98912.04;104222;1272;71939;-61
2024/01/19 14:50:16;;;;;;;7.40;3.70;;;;;;;7.27;62.04;98913.33;104462;1262;69581;-60
2024/01/19 14:53:28;;;;;;;5.20;3.80;;;;;;;7.25;61.73;98917.06;104686;1259;73983;-64
2024/01/19 14:56:40;;;;;;;6.10;3.90;;;;;;;7.15;61.66;98924.08;104501;1257;61302;-58
2024/01/19 15:07:14;;;;;;;9.90;3.70;;;;;;;6.86;62.57;98936.92;104034;1262;68766;-60
2024/01/19 15:10:15;;;;;;;5.80;4.10;;;;;;;6.93;62.67;98946.39;104471;1258;71810;-63
2024/01/19 15:13:27;;;;;;;4.80;3.40;;;;;;;6.96;62.77;98949.26;104573;1261;61758;-59
2024/01/19 15:20:30;;;;;;;5.90;4.30;;;;;;;6.98;63.01;98960.47;104094;1255;72243;-60
2024/01/19 15:23:43;;;;;;;5.90;4.00;;;;;;;6.89;62.64;98958.23;104210;1262;69804;-61
2024/01/19 15:26:56;;;;;;;5.50;4.40;;;;;;;6.83;62.45;98965.25;104251;1262;72220;-61
2024/01/19 15:37:29;;;;;;;8.00;4.50;;;;;;;6.89;63.05;98973.91;104241;1268;72400;-60
2024/01/19 15:40:42;;;;;;;8.40;5.10;;;;;;;6.96;63.49;98971.55;104760;1260;69450;-61
2024/01/19 15:43:54;;;;;;;7.00;4.40;;;;;;;7.02;62.57;98974.27;104389;1262;72314;-60
2024/01/19 15:47:10;;;;;;;5.10;4.00;;;;;;;7.04;62.46;98968.30;104309;1269;63142;-61
2024/01/19 15:54:47;;;;;;;7.30;4.80;;;;;;;7.07;62.90;98978.11;104485;1260;75243;-61
2024/01/19 16:02:01;;;;;;;11.00;6.00;;;;;;;6.95;62.66;98987.45;104206;1263;75456;-61
2024/01/19 16:05:14;;;;;;;11.10;6.20;;;;;;;6.90;62.74;98988.32;104202;1279;63291;-60
2024/01/19 16:08:27;;;;;;;9.80;6.00;;;;;;;6.91;63.15;98985.70;104424;1272;60457;-61
2024/01/19 16:11:38;;;;;;;9.70;6.00;;;;;;;6.99;63.03;98985.90;104369;1271;74341;-60
2024/01/19 16:14:52;;;;;;;7.50;5.20;;;;;;;7.00;63.08;98983.79;104498;1262;70384;-60
2024/01/19 16:18:04;;;;;;;8.80;5.00;;;;;;;7.01;63.29;98984.73;104155;1268;75019;-61
2024/01/19 16:21:16;;;;;;;11.70;5.60;;;;;;;6.89;63.33;98992.90;104247;1267;60965;-60
2024/01/19 16:23:44;;;;;;;7.70;5.00;;;;;;;6.83;64.55;98997.29;104598;1261;62736;-61
2024/01/19 16:26:57;;;;;;;6.50;4.70;;;;;;;6.83;64.57;99002.19;104275;1259;73989;-61
2024/01/19 16:34:29;;;;;;;9.90;6.20;;;;;;;6.81;65.95;99016.38;104333;1272;73349;-62
2024/01/19 16:37:41;;;;;;;9.40;6.50;;;;;;;6.86;65.94;99024.20;104247;1268;59948;-61
2024/01/19 16:40:15;;;;;;;13.20;7.00;;;;;;;6.84;65.36;99034.20;104326;1262;60465;-61
2024/01/19 16:43:27;;;;;;;11.00;7.30;;;;;;;6.84;65.57;99036.81;104283;1266;73717;-61
2024/01/19 16:46:44;;;;;;;8.10;6.10;;;;;;;6.78;65.75;99037.38;104432;1256;69553;-61
2024/01/19 16:57:46;;;;;;;10.70;6.70;;;;;;;6.83;66.53;99066.66;104365;1256;61682;-61
2024/01/19 17:01:01;;;;;;;11.20;7.00;;;;;;;6.81;66.95;99070.88;104469;1261;73762;-59
2024/01/19 17:03:28;;;;;;;12.70;6.90;;;;;;;6.86;67.43;99072.46;104605;1260;70795;-61
2024/01/19 17:06:42;;;;;;;13.30;8.20;;;;;;;6.92;67.52;99077.80;104567;1260;74451;-60
2024/01/19 17:09:57;;;;;;;13.30;8.30;;;;;;;6.95;67.87;99075.98;104396;1260;63105;-60
2024/01/19 17:13:13;;;;;;;18.40;10.00;;;;;;;6.94;67.86;99083.30;104463;1261;60557;-61
2024/01/19 17:16:25;;;;;;;15.80;9.10;;;;;;;6.99;68.02;99087.66;104493;1261;73215;-61
2024/01/19 17:18:59;;;;;;;22.40;11.30;;;;;;;7.08;67.66;99093.77;104324;1256;69265;-61
2024/01/19 17:22:12;;;;;;;17.50;9.90;;;;;;;7.04;68.17;99095.30;104244;1268;72479;-61
2024/01/19 17:25:27;;;;;;;17.50;9.50;;;;;;;7.02;68.54;99100.78;104409;1256;62715;-61
2024/01/19 17:28:44;;;;;;;12.50;8.10;;;;;;;6.94;68.72;99103.70;104174;1261;60467;-61
2024/01/19 17:31:38;;;;;;;15.00;8.20;;;;;;;6.95;69.54;99110.98;104123;1272;76196;-60
2024/01/19 17:34:52;;;;;;;12.30;8.50;;;;;;;6.93;70.27;99116.45;104326;1272;69514;-58